createdAt,value
2023-03-10T00:01:21.613Z,0.57
2023-03-10T00:03:48.659Z,0.44
2023-03-10T00:06:22.127Z,0.54
2023-03-10T00:08:49.245Z,0.45
2023-03-10T00:11:31.332Z,0.43
2023-03-10T00:13:58.467Z,0.47
2023-03-10T00:16:34.370Z,0.60
2023-03-10T00:19:00.989Z,0.59
2023-03-10T00:21:30.275Z,0.60
2023-03-10T00:23:57.838Z,0.52
2023-03-10T00:26:31.054Z,0.40
2023-03-10T00:28:58.360Z,0.38
2023-03-10T00:31:27.064Z,0.31
2023-03-10T00:33:55.710Z,0.29
2023-03-10T00:36:24.796Z,0.25
2023-03-10T00:38:56.129Z,0.28
2023-03-10T00:41:31.222Z,0.25
2023-03-10T00:44:01.524Z,0.21
2023-03-10T00:46:33.490Z,0.35
2023-03-10T00:49:02.863Z,0.31
2023-03-10T00:51:29.573Z,0.34
2023-03-10T00:53:56.275Z,0.32
2023-03-10T00:56:25.583Z,0.28
2023-03-10T00:58:55.444Z,0.36
2023-03-10T01:01:35.877Z,0.37
2023-03-10T01:04:05.992Z,0.33
2023-03-10T01:06:33.701Z,0.46
2023-03-10T01:09:01.187Z,0.51
2023-03-10T01:11:29.293Z,0.59
2023-03-10T01:14:02.062Z,0.62
2023-03-10T01:16:29.658Z,0.61
2023-03-10T01:18:57.558Z,0.47
2023-03-10T01:21:30.961Z,0.58
2023-03-10T01:23:58.490Z,0.61
2023-03-10T01:26:28.413Z,0.58
2023-03-10T01:29:05.020Z,0.63
2023-03-10T01:31:38.449Z,0.77
2023-03-10T01:34:05.902Z,0.79
2023-03-10T01:36:32.599Z,0.78
2023-03-10T01:39:00.436Z,0.74
2023-03-10T01:41:26.984Z,0.75
2023-03-10T01:44:03.507Z,0.82
2023-03-10T01:46:44.232Z,0.77
2023-03-10T01:49:22.784Z,0.74
2023-03-10T01:51:55.731Z,0.71
2023-03-10T01:54:26.949Z,0.69
2023-03-10T01:56:56.285Z,0.68
2023-03-10T01:59:24.365Z,0.64
2023-03-10T02:01:52.822Z,0.69
2023-03-10T02:04:33.502Z,0.66
2023-03-10T02:07:03.874Z,0.73
2023-03-10T02:09:33.045Z,0.71
2023-03-10T02:12:00.869Z,0.60
2023-03-10T02:14:27.781Z,0.73
2023-03-10T02:16:57.329Z,0.62
2023-03-10T02:19:38.427Z,0.82
2023-03-10T02:22:13.609Z,0.75
2023-03-10T02:25:17.079Z,0.75
2023-03-10T02:27:44.359Z,0.82
2023-03-10T02:30:15.072Z,0.79
2023-03-10T02:32:49.703Z,0.84
2023-03-10T02:35:16.512Z,0.80
2023-03-10T02:37:43.298Z,0.84
2023-03-10T02:40:34.500Z,0.91
2023-03-10T02:43:10.331Z,0.90
2023-03-10T02:45:41.454Z,0.80
2023-03-10T02:48:14.775Z,0.77
2023-03-10T02:50:43.973Z,0.61
2023-03-10T02:53:23.154Z,0.73
2023-03-10T02:55:49.821Z,0.82
2023-03-10T02:58:20.928Z,0.75
2023-03-10T03:00:48.887Z,0.85
2023-03-10T03:03:19.923Z,0.68
2023-03-10T03:05:53.323Z,0.85
2023-03-10T03:08:23.059Z,0.88
2023-03-10T03:10:50.176Z,0.92
2023-03-10T03:13:19.082Z,0.82
2023-03-10T03:15:48.753Z,0.72
2023-03-10T03:18:15.385Z,0.69
2023-03-10T03:20:56.151Z,0.78
2023-03-10T03:23:22.878Z,0.81
2023-03-10T03:25:49.528Z,0.63
2023-03-10T03:28:19.222Z,0.69
2023-03-10T03:30:55.198Z,0.81
2023-03-10T03:33:22.474Z,0.78
2023-03-10T03:35:49.249Z,0.75
2023-03-10T03:38:20.032Z,0.75
2023-03-10T03:40:46.837Z,0.86
2023-03-10T03:43:14.403Z,0.93
2023-03-10T03:45:41.375Z,1.00
2023-03-10T03:48:08.068Z,1.05
2023-03-10T03:50:34.718Z,0.99
2023-03-10T03:53:01.404Z,0.83
2023-03-10T03:55:29.277Z,0.82
2023-03-10T03:57:56.463Z,0.80
2023-03-10T04:00:31.798Z,0.82
2023-03-10T04:02:59.266Z,0.74
2023-03-10T04:05:26.014Z,0.94
2023-03-10T04:07:57.408Z,0.91
2023-03-10T04:10:24.143Z,1.00
2023-03-10T04:12:51.304Z,0.98
2023-03-10T04:15:17.988Z,1.04
2023-03-10T04:17:44.642Z,1.06
2023-03-10T04:20:14.568Z,1.04
2023-03-10T04:22:42.022Z,1.01
2023-03-10T04:25:09.918Z,1.02
2023-03-10T04:27:40.025Z,1.08
2023-03-10T04:30:09.254Z,0.94
2023-03-10T04:32:36.006Z,1.04
2023-03-10T04:35:02.797Z,0.92
2023-03-10T04:37:29.420Z,0.86
2023-03-10T04:39:57.470Z,1.05
2023-03-10T04:42:30.241Z,1.16
2023-03-10T04:44:56.964Z,0.86
2023-03-10T04:47:23.599Z,0.84
2023-03-10T04:49:50.252Z,0.86
2023-03-10T04:52:17.237Z,0.98
2023-03-10T04:54:46.588Z,0.85
2023-03-10T04:57:19.260Z,1.08
2023-03-10T04:59:45.975Z,1.19
2023-03-10T05:02:13.030Z,1.20
2023-03-10T05:04:39.801Z,1.14
2023-03-10T05:07:12.763Z,1.11
2023-03-10T05:09:39.419Z,1.24
2023-03-10T05:12:07.105Z,1.30
2023-03-10T05:14:36.357Z,1.29
2023-03-10T05:17:03.097Z,1.30
2023-03-10T05:19:29.790Z,1.20
2023-03-10T05:21:56.470Z,1.10
2023-03-10T05:24:23.158Z,1.06
2023-03-10T05:26:50.015Z,1.09
2023-03-10T05:29:16.685Z,1.25
2023-03-10T05:31:46.542Z,1.15
2023-03-10T05:34:17.082Z,1.16
2023-03-10T05:36:47.107Z,1.02
2023-03-10T05:39:13.772Z,1.24
2023-03-10T05:41:40.942Z,1.32
2023-03-10T05:44:07.670Z,1.36
2023-03-10T05:46:34.391Z,1.18
2023-03-10T05:49:02.919Z,1.24
2023-03-10T05:51:29.856Z,1.30
2023-03-10T05:53:56.562Z,1.33
2023-03-10T05:56:23.270Z,1.38
2023-03-10T05:58:51.046Z,1.40
2023-03-10T06:01:18.667Z,1.28
2023-03-10T06:03:45.732Z,1.34
2023-03-10T06:06:13.370Z,1.48
2023-03-10T06:08:43.271Z,1.48
2023-03-10T06:11:10.357Z,1.49
2023-03-10T06:13:37.041Z,1.44
2023-03-10T06:16:18.392Z,1.55
2023-03-10T06:18:45.123Z,1.53
2023-03-10T06:21:14.277Z,1.50
2023-03-10T06:23:41.295Z,1.63
2023-03-10T06:26:11.739Z,1.67
2023-03-10T06:28:40.896Z,1.66
2023-03-10T06:31:18.292Z,1.74
2023-03-10T06:33:45.294Z,1.71
2023-03-10T06:36:13.131Z,1.76
2023-03-10T06:38:40.076Z,1.82
2023-03-10T06:41:12.927Z,1.69
2023-03-10T06:43:40.361Z,1.74
2023-03-10T06:46:10.240Z,1.83
2023-03-10T06:48:38.897Z,1.77
2023-03-10T06:51:07.826Z,1.85
2023-03-10T06:53:34.602Z,1.91
2023-03-10T06:56:10.915Z,1.88
2023-03-10T06:58:38.588Z,1.96
2023-03-10T07:01:06.330Z,1.97
2023-03-10T07:03:35.595Z,2.01
2023-03-10T07:06:02.284Z,1.98
2023-03-10T07:08:30.178Z,1.98
2023-03-10T07:10:57.055Z,2.02
2023-03-10T07:13:23.798Z,2.06
2023-03-10T07:15:53.603Z,2.06
2023-03-10T07:18:20.544Z,2.11
2023-03-10T07:20:53.080Z,2.15
2023-03-10T07:23:20.102Z,2.10
2023-03-10T07:25:54.584Z,2.12
2023-03-10T07:28:21.165Z,2.25
2023-03-10T07:30:48.484Z,2.33
2023-03-10T07:33:18.659Z,2.44
2023-03-10T07:35:46.061Z,2.59
2023-03-10T07:38:12.853Z,2.57
2023-03-10T07:40:40.478Z,2.62
2023-03-10T07:43:09.990Z,2.68
2023-03-10T07:45:38.481Z,2.79
2023-03-10T07:48:05.544Z,2.86
2023-03-10T07:50:32.421Z,2.99
2023-03-10T07:52:59.028Z,3.01
2023-03-10T07:55:27.107Z,3.15
2023-03-10T07:57:56.764Z,3.16
2023-03-10T08:00:23.836Z,3.16
2023-03-10T08:02:50.904Z,3.35
2023-03-10T08:05:17.723Z,3.49
2023-03-10T08:07:44.656Z,3.57
2023-03-10T08:10:12.163Z,3.73
2023-03-10T08:12:39.345Z,3.84
2023-03-10T08:15:14.638Z,3.84
2023-03-10T08:17:41.446Z,4.08
2023-03-10T08:20:09.790Z,4.02
2023-03-10T08:22:41.329Z,4.10
2023-03-10T08:25:08.563Z,4.10
2023-03-10T08:27:35.466Z,3.98
2023-03-10T08:30:02.144Z,3.93
2023-03-10T08:32:34.210Z,3.98
2023-03-10T08:35:01.256Z,4.02
2023-03-10T08:37:27.919Z,4.10
2023-03-10T08:39:56.626Z,4.22
2023-03-10T08:42:23.271Z,4.36
2023-03-10T08:44:50.154Z,4.45
2023-03-10T08:47:16.809Z,4.60
2023-03-10T08:49:46.308Z,4.74
2023-03-10T08:52:14.382Z,4.90
2023-03-10T08:54:41.188Z,5.03
2023-03-10T08:57:07.974Z,5.28
2023-03-10T08:59:34.675Z,5.50
2023-03-10T09:02:01.529Z,5.78
2023-03-10T09:04:28.233Z,5.83
2023-03-10T09:06:54.913Z,6.12
2023-03-10T09:09:24.101Z,6.68
2023-03-10T09:11:50.775Z,7.00
2023-03-10T09:14:20.441Z,7.51
2023-03-10T09:16:47.168Z,7.73
2023-03-10T09:19:14.141Z,7.87
2023-03-10T09:21:43.660Z,8.06
2023-03-10T09:24:12.932Z,8.14
2023-03-10T09:26:44.505Z,8.16
2023-03-10T09:29:12.228Z,8.31
2023-03-10T09:31:39.729Z,8.52
2023-03-10T09:34:08.420Z,8.53
2023-03-10T09:36:37.086Z,8.55
2023-03-10T09:39:05.173Z,8.65
2023-03-10T09:41:37.702Z,8.69
2023-03-10T09:44:16.835Z,8.78
2023-03-10T09:47:09.519Z,9.11
2023-03-10T09:49:42.459Z,9.34
2023-03-10T09:52:27.145Z,9.44
2023-03-10T09:55:25.493Z,9.48
2023-03-10T09:57:56.907Z,9.40
2023-03-10T10:00:35.466Z,9.30
2023-03-10T10:03:24.489Z,9.24
2023-03-10T10:05:53.573Z,9.18
2023-03-10T10:08:28.107Z,9.15
2023-03-10T10:10:58.539Z,9.24
2023-03-10T10:13:32.798Z,9.32
2023-03-10T10:16:34.859Z,9.52
2023-03-10T10:19:24.972Z,9.64
2023-03-10T10:21:54.709Z,9.92
2023-03-10T10:24:24.722Z,9.97
2023-03-10T10:26:54.451Z,9.86
2023-03-10T10:29:37.091Z,9.92
2023-03-10T10:32:04.210Z,9.98
2023-03-10T10:34:32.233Z,9.88
2023-03-10T10:37:03.300Z,9.77
2023-03-10T10:39:42.478Z,9.64
2023-03-10T10:42:25.503Z,9.49
2023-03-10T10:44:58.177Z,9.31
2023-03-10T10:47:27.329Z,9.27
2023-03-10T10:49:56.683Z,9.27
2023-03-10T10:52:29.560Z,9.27
2023-03-10T10:55:02.110Z,9.24
2023-03-10T10:57:33.157Z,9.26
2023-03-10T11:00:20.019Z,9.36
2023-03-10T11:02:46.809Z,9.47
2023-03-10T11:05:20.635Z,9.49
2023-03-10T11:07:47.556Z,9.44
2023-03-10T11:10:27.806Z,9.32
2023-03-10T11:12:57.127Z,9.25
2023-03-10T11:15:41.455Z,9.31
2023-03-10T11:18:19.109Z,9.34
2023-03-10T11:20:54.967Z,9.41
2023-03-10T11:23:40.097Z,9.40
2023-03-10T11:26:27.003Z,9.33
2023-03-10T11:29:09.587Z,9.20
2023-03-10T11:31:50.275Z,9.19
2023-03-10T11:34:36.441Z,9.19
2023-03-10T11:37:13.522Z,9.18
2023-03-10T11:39:50.656Z,9.15
2023-03-10T11:42:45.379Z,9.15
2023-03-10T11:45:18.218Z,9.11
2023-03-10T11:47:59.036Z,9.03
2023-03-10T11:50:49.030Z,9.07
2023-03-10T11:53:38.681Z,9.00
2023-03-10T11:56:08.253Z,9.26
2023-03-10T11:58:47.603Z,9.34
2023-03-10T12:01:20.639Z,9.43
2023-03-10T12:04:22.655Z,9.29
2023-03-10T12:07:01.292Z,9.32
2023-03-10T12:09:33.810Z,9.10
2023-03-10T12:12:03.574Z,8.86
2023-03-10T12:14:31.687Z,8.88
2023-03-10T12:16:59.852Z,8.95
2023-03-10T12:19:26.644Z,8.89
2023-03-10T12:22:11.658Z,8.66
2023-03-10T12:24:46.929Z,8.66
2023-03-10T12:27:13.614Z,8.69
2023-03-10T12:29:44.309Z,8.71
2023-03-10T12:32:47.662Z,8.79
2023-03-10T12:35:29.492Z,9.36
2023-03-10T12:38:28.673Z,9.61
2023-03-10T12:40:59.365Z,9.53
2023-03-10T12:43:49.065Z,9.82
2023-03-10T12:46:21.876Z,10.27
2023-03-10T12:49:02.929Z,9.76
2023-03-10T12:51:37.135Z,9.76
2023-03-10T12:54:31.843Z,9.50
2023-03-10T12:57:25.273Z,9.11
2023-03-10T13:00:00.020Z,9.01
2023-03-10T13:02:37.552Z,9.25
2023-03-10T13:05:07.988Z,9.38
2023-03-10T13:07:35.413Z,9.52
2023-03-10T13:10:05.530Z,9.65
2023-03-10T13:12:57.886Z,9.40
2023-03-10T13:15:32.175Z,9.25
2023-03-10T13:18:20.290Z,9.39
2023-03-10T13:20:47.883Z,9.23
2023-03-10T13:23:25.129Z,9.43
2023-03-10T13:25:56.817Z,9.41
2023-03-10T13:28:24.956Z,9.12
2023-03-10T13:30:51.918Z,8.99
2023-03-10T13:33:24.007Z,8.84
2023-03-10T13:35:52.378Z,8.73
2023-03-10T13:38:21.940Z,8.73
2023-03-10T13:41:03.250Z,8.60
2023-03-10T13:43:35.603Z,8.57
2023-03-10T13:46:04.495Z,8.70
2023-03-10T13:48:32.450Z,8.80
2023-03-10T13:51:32.118Z,8.74
2023-03-10T13:54:38.257Z,8.65
2023-03-10T13:57:26.173Z,8.69
2023-03-10T13:59:54.569Z,8.60
2023-03-10T14:02:24.911Z,8.67
2023-03-10T14:04:54.552Z,8.52
2023-03-10T14:07:28.636Z,8.43
2023-03-10T14:10:08.910Z,8.44
2023-03-10T14:12:38.376Z,8.27
2023-03-10T14:15:14.249Z,8.22
2023-03-10T14:17:46.945Z,8.09
2023-03-10T14:20:27.280Z,8.05
2023-03-10T14:22:53.838Z,8.09
2023-03-10T14:25:25.209Z,7.99
2023-03-10T14:28:04.822Z,7.92
2023-03-10T14:30:33.616Z,7.87
2023-03-10T14:33:01.441Z,7.82
2023-03-10T14:35:29.858Z,7.88
2023-03-10T14:38:06.013Z,7.89
2023-03-10T14:40:38.698Z,7.86
2023-03-10T14:43:05.576Z,7.81
2023-03-10T14:45:38.944Z,7.86
2023-03-10T14:48:19.053Z,7.78
2023-03-10T14:50:48.977Z,7.82
2023-03-10T14:53:18.469Z,7.82
2023-03-10T14:55:57.215Z,7.78
2023-03-10T14:58:28.580Z,7.58
2023-03-10T15:00:55.581Z,7.62
2023-03-10T15:03:22.372Z,7.65
2023-03-10T15:05:49.615Z,7.54
2023-03-10T15:08:17.509Z,7.50
2023-03-10T15:10:50.807Z,7.51
2023-03-10T15:13:19.963Z,7.52
2023-03-10T15:15:48.184Z,7.41
2023-03-10T15:18:21.822Z,7.30
2023-03-10T15:20:48.921Z,7.18
2023-03-10T15:23:19.476Z,6.99
2023-03-10T15:25:46.711Z,6.95
2023-03-10T15:28:14.293Z,6.89
2023-03-10T15:30:41.007Z,6.87
2023-03-10T15:33:07.731Z,6.80
2023-03-10T15:35:35.060Z,6.69
2023-03-10T15:38:02.612Z,6.58
2023-03-10T15:40:31.510Z,6.52
2023-03-10T15:43:00.022Z,6.39
2023-03-10T15:45:28.649Z,6.29
2023-03-10T15:47:55.525Z,6.25
2023-03-10T15:50:34.512Z,6.15
2023-03-10T15:53:04.680Z,6.07
2023-03-10T15:55:31.410Z,6.00
2023-03-10T15:58:01.230Z,5.94
2023-03-10T16:00:28.007Z,5.85
2023-03-10T16:02:55.110Z,5.75
2023-03-10T16:05:22.260Z,5.75
2023-03-10T16:07:48.965Z,5.78
2023-03-10T16:10:19.904Z,5.73
2023-03-10T16:12:46.941Z,5.65
2023-03-10T16:15:17.587Z,5.56
2023-03-10T16:17:44.869Z,5.45
2023-03-10T16:20:17.025Z,5.51
2023-03-10T16:22:43.859Z,5.43
2023-03-10T16:25:15.491Z,5.29
2023-03-10T16:27:44.575Z,5.13
2023-03-10T16:30:14.043Z,4.97
2023-03-10T16:32:45.395Z,4.84
2023-03-10T16:35:18.863Z,4.73
2023-03-10T16:37:45.510Z,4.58
2023-03-10T16:40:12.754Z,4.51
2023-03-10T16:42:43.350Z,4.45
2023-03-10T16:45:10.494Z,4.34
2023-03-10T16:47:37.108Z,4.33
2023-03-10T16:50:04.024Z,4.26
2023-03-10T16:52:30.899Z,4.22
2023-03-10T16:55:00.817Z,4.22
2023-03-10T16:57:27.572Z,4.21
2023-03-10T16:59:54.504Z,4.21
2023-03-10T17:02:21.145Z,4.14
2023-03-10T17:04:48.554Z,4.11
2023-03-10T17:07:15.321Z,4.08
2023-03-10T17:09:42.049Z,4.05
2023-03-10T17:12:11.511Z,4.05
2023-03-10T17:14:41.329Z,4.00
2023-03-10T17:17:08.275Z,3.95
2023-03-10T17:19:37.631Z,3.96
2023-03-10T17:22:04.314Z,3.89
2023-03-10T17:24:31.497Z,3.81
2023-03-10T17:27:01.077Z,3.70
2023-03-10T17:29:27.757Z,3.66
2023-03-10T17:31:54.733Z,3.65
2023-03-10T17:34:21.690Z,3.54
2023-03-10T17:36:51.749Z,3.52
2023-03-10T17:39:23.853Z,3.51
2023-03-10T17:41:59.664Z,3.50
2023-03-10T17:44:26.661Z,3.49
2023-03-10T17:46:56.009Z,3.47
2023-03-10T17:49:22.732Z,3.46
2023-03-10T17:51:49.466Z,3.46
2023-03-10T17:54:23.098Z,3.47
2023-03-10T17:56:50.214Z,3.42
2023-03-10T17:59:17.339Z,3.42
2023-03-10T18:01:45.649Z,3.39
2023-03-10T18:04:12.898Z,3.32
2023-03-10T18:06:39.580Z,3.24
2023-03-10T18:09:08.546Z,3.18
2023-03-10T18:11:35.561Z,3.13
2023-03-10T18:14:10.711Z,3.09
2023-03-10T18:16:40.114Z,3.10
2023-03-10T18:19:11.328Z,3.09
2023-03-10T18:21:38.442Z,2.98
2023-03-10T18:24:05.262Z,2.86
2023-03-10T18:26:32.062Z,2.88
2023-03-10T18:28:59.996Z,2.87
2023-03-10T18:31:28.128Z,2.88
2023-03-10T18:33:55.276Z,2.85
2023-03-10T18:36:24.205Z,2.87
2023-03-10T18:38:51.793Z,2.87
2023-03-10T18:41:23.864Z,2.88
2023-03-10T18:43:53.887Z,2.86
2023-03-10T18:46:21.416Z,2.89
2023-03-10T18:48:48.475Z,2.82
2023-03-10T18:51:15.968Z,2.71
2023-03-10T18:53:42.715Z,2.72
2023-03-10T18:56:10.137Z,2.74
2023-03-10T18:58:36.822Z,2.72
2023-03-10T19:01:03.578Z,2.77
2023-03-10T19:03:30.989Z,2.78
2023-03-10T19:06:00.654Z,2.77
2023-03-10T19:08:27.470Z,2.77
2023-03-10T19:11:01.984Z,2.77
2023-03-10T19:13:29.346Z,2.73
2023-03-10T19:15:56.620Z,2.69
2023-03-10T19:18:24.607Z,2.66
2023-03-10T19:20:57.828Z,2.65
2023-03-10T19:23:24.530Z,2.59
2023-03-10T19:25:51.183Z,2.61
2023-03-10T19:28:17.855Z,2.65
2023-03-10T19:30:44.647Z,2.67
2023-03-10T19:33:14.414Z,2.72
2023-03-10T19:35:44.059Z,2.71
2023-03-10T19:38:13.438Z,2.72
2023-03-10T19:40:40.122Z,2.70
2023-03-10T19:43:07.292Z,2.70
2023-03-10T19:45:33.996Z,2.66
2023-03-10T19:48:01.002Z,2.65
2023-03-10T19:50:28.198Z,2.64
2023-03-10T19:52:56.088Z,2.69
2023-03-10T19:55:26.670Z,2.69
2023-03-10T19:57:56.164Z,2.66
2023-03-10T20:00:27.753Z,2.63
2023-03-10T20:02:58.557Z,2.58
2023-03-10T20:05:29.619Z,2.50
2023-03-10T20:07:56.356Z,2.55
2023-03-10T20:10:23.123Z,2.50
2023-03-10T20:12:51.519Z,2.48
2023-03-10T20:15:18.817Z,2.48
2023-03-10T20:17:51.769Z,2.49
2023-03-10T20:20:20.437Z,2.51
2023-03-10T20:22:52.556Z,2.49
2023-03-10T20:25:21.280Z,2.49
2023-03-10T20:27:52.676Z,2.50
2023-03-10T20:30:27.871Z,2.46
2023-03-10T20:32:56.109Z,2.47
2023-03-10T20:35:23.772Z,2.43
2023-03-10T20:37:50.438Z,2.40
2023-03-10T20:40:22.422Z,2.40
2023-03-10T20:42:59.040Z,2.36
2023-03-10T20:45:25.832Z,2.34
2023-03-10T20:47:54.692Z,2.32
2023-03-10T20:50:21.920Z,2.29
2023-03-10T20:52:49.015Z,2.34
2023-03-10T20:55:30.976Z,2.31
2023-03-10T20:58:00.319Z,2.34
2023-03-10T21:00:28.912Z,2.33
2023-03-10T21:02:57.391Z,2.30
2023-03-10T21:05:26.939Z,2.36
2023-03-10T21:07:54.458Z,2.37
2023-03-10T21:10:26.748Z,2.35
2023-03-10T21:12:53.545Z,2.35
2023-03-10T21:15:23.472Z,2.28
2023-03-10T21:17:53.695Z,2.29
2023-03-10T21:20:23.032Z,2.31
2023-03-10T21:22:50.329Z,2.33
2023-03-10T21:25:21.250Z,2.32
2023-03-10T21:27:52.972Z,2.26
2023-03-10T21:30:21.541Z,2.24
2023-03-10T21:32:48.215Z,2.22
2023-03-10T21:35:24.794Z,2.23
2023-03-10T21:37:56.459Z,2.19
2023-03-10T21:40:24.435Z,2.10
2023-03-10T21:42:51.182Z,2.10
2023-03-10T21:45:24.522Z,2.07
2023-03-10T21:47:51.689Z,2.12
2023-03-10T21:50:19.053Z,2.13
2023-03-10T21:52:49.278Z,2.13
2023-03-10T21:55:28.478Z,2.15
2023-03-10T21:57:55.097Z,2.12
2023-03-10T22:00:23.598Z,2.14
2023-03-10T22:02:52.567Z,2.12
2023-03-10T22:05:21.035Z,2.12
2023-03-10T22:07:48.430Z,2.11
2023-03-10T22:10:21.989Z,2.13
2023-03-10T22:12:49.353Z,2.07
2023-03-10T22:15:19.488Z,2.08
2023-03-10T22:17:46.812Z,2.08
2023-03-10T22:20:20.886Z,2.05
2023-03-10T22:22:48.765Z,2.06
2023-03-10T22:25:16.436Z,2.00
2023-03-10T22:27:47.060Z,2.03
2023-03-10T22:30:16.541Z,2.02
2023-03-10T22:32:43.705Z,1.99
2023-03-10T22:35:12.246Z,1.99
2023-03-10T22:37:39.643Z,1.99
2023-03-10T22:40:10.258Z,1.99
2023-03-10T22:42:41.544Z,2.00
2023-03-10T22:45:32.080Z,1.97
2023-03-10T22:48:01.224Z,1.89
2023-03-10T22:50:32.666Z,1.88
2023-03-10T22:53:04.680Z,1.75
2023-03-10T22:55:35.649Z,1.76
2023-03-10T22:58:04.459Z,1.83
2023-03-10T23:00:34.477Z,1.85
2023-03-10T23:03:01.469Z,1.78
2023-03-10T23:05:33.510Z,1.72
2023-03-10T23:08:00.357Z,1.74
2023-03-10T23:10:32.673Z,1.76
2023-03-10T23:13:01.537Z,1.69
2023-03-10T23:15:32.387Z,1.69
2023-03-10T23:18:03.309Z,1.69
2023-03-10T23:20:49.245Z,1.70
2023-03-10T23:23:19.932Z,1.73
2023-03-10T23:25:48.698Z,1.72
2023-03-10T23:28:16.363Z,1.68
2023-03-10T23:30:45.104Z,1.66
2023-03-10T23:33:20.540Z,1.65
2023-03-10T23:35:50.498Z,1.67
2023-03-10T23:38:21.158Z,1.66
2023-03-10T23:40:50.949Z,1.64
2023-03-10T23:43:18.170Z,1.61
2023-03-10T23:45:45.567Z,1.61
2023-03-10T23:48:27.081Z,1.60
2023-03-10T23:50:56.768Z,1.53
2023-03-10T23:53:23.751Z,1.52
2023-03-10T23:55:51.024Z,1.50
2023-03-10T23:58:19.790Z,1.47
